sensor_id;sensor_type;location;lat;lon;timestamp;P1;durP1;ratioP1;P2;durP2;ratioP2
21729;SDS011;11027;51.030;13.812;2022-07-29T00:00:56;5.72;;;1.60;;
21729;SDS011;11027;51.030;13.812;2022-07-29T00:03:21;3.55;;;1.58;;
21729;SDS011;11027;51.030;13.812;2022-07-29T00:05:46;8.77;;;1.77;;
21729;SDS011;11027;51.030;13.812;2022-07-29T00:08:12;5.22;;;1.42;;
21729;SDS011;11027;51.030;13.812;2022-07-29T00:10:37;5.00;;;1.60;;
21729;SDS011;11027;51.030;13.812;2022-07-29T00:13:03;6.03;;;1.80;;
21729;SDS011;11027;51.030;13.812;2022-07-29T00:15:28;9.65;;;1.77;;
21729;SDS011;11027;51.030;13.812;2022-07-29T00:17:54;6.03;;;1.80;;
21729;SDS011;11027;51.030;13.812;2022-07-29T00:20:19;7.72;;;2.15;;
21729;SDS011;11027;51.030;13.812;2022-07-29T00:22:44;8.55;;;2.00;;
21729;SDS011;11027;51.030;13.812;2022-07-29T00:25:10;7.40;;;2.30;;
21729;SDS011;11027;51.030;13.812;2022-07-29T00:27:37;5.57;;;2.00;;
21729;SDS011;11027;51.030;13.812;2022-07-29T00:30:03;6.05;;;1.98;;
21729;SDS011;11027;51.030;13.812;2022-07-29T00:32:29;5.95;;;1.80;;
21729;SDS011;11027;51.030;13.812;2022-07-29T00:34:54;9.68;;;1.92;;
21729;SDS011;11027;51.030;13.812;2022-07-29T00:37:38;7.28;;;2.00;;
21729;SDS011;11027;51.030;13.812;2022-07-29T00:40:04;7.95;;;2.00;;
21729;SDS011;11027;51.030;13.812;2022-07-29T00:42:29;7.93;;;1.70;;
21729;SDS011;11027;51.030;13.812;2022-07-29T00:44:54;7.70;;;1.80;;
21729;SDS011;11027;51.030;13.812;2022-07-29T00:47:20;8.52;;;2.10;;
21729;SDS011;11027;51.030;13.812;2022-07-29T00:49:45;8.63;;;2.45;;
21729;SDS011;11027;51.030;13.812;2022-07-29T00:52:11;11.30;;;2.70;;
21729;SDS011;11027;51.030;13.812;2022-07-29T00:54:37;7.95;;;2.20;;
21729;SDS011;11027;51.030;13.812;2022-07-29T00:57:04;8.30;;;2.72;;
21729;SDS011;11027;51.030;13.812;2022-07-29T00:59:31;7.88;;;2.58;;
21729;SDS011;11027;51.030;13.812;2022-07-29T01:01:56;10.65;;;2.70;;
21729;SDS011;11027;51.030;13.812;2022-07-29T01:04:21;12.82;;;2.53;;
21729;SDS011;11027;51.030;13.812;2022-07-29T01:06:47;9.45;;;2.63;;
21729;SDS011;11027;51.030;13.812;2022-07-29T01:09:14;13.95;;;3.15;;
21729;SDS011;11027;51.030;13.812;2022-07-29T01:11:40;8.57;;;3.30;;
21729;SDS011;11027;51.030;13.812;2022-07-29T01:14:07;8.65;;;3.35;;
21729;SDS011;11027;51.030;13.812;2022-07-29T01:16:36;8.18;;;3.42;;
21729;SDS011;11027;51.030;13.812;2022-07-29T01:19:13;10.20;;;4.03;;
21729;SDS011;11027;51.030;13.812;2022-07-29T01:21:57;8.00;;;4.25;;
21729;SDS011;11027;51.030;13.812;2022-07-29T01:24:44;12.60;;;5.60;;
21729;SDS011;11027;51.030;13.812;2022-07-29T01:27:38;15.10;;;6.78;;
21729;SDS011;11027;51.030;13.812;2022-07-29T01:32:38;16.58;;;7.32;;
21729;SDS011;11027;51.030;13.812;2022-07-29T01:35:06;18.50;;;8.45;;
21729;SDS011;11027;51.030;13.812;2022-07-29T01:40:16;22.33;;;9.35;;
21729;SDS011;11027;51.030;13.812;2022-07-29T01:42:54;16.85;;;8.93;;
21729;SDS011;11027;51.030;13.812;2022-07-29T01:45:30;17.58;;;9.20;;
21729;SDS011;11027;51.030;13.812;2022-07-29T01:50:58;25.95;;;11.90;;
21729;SDS011;11027;51.030;13.812;2022-07-29T01:53:31;26.75;;;12.68;;
21729;SDS011;11027;51.030;13.812;2022-07-29T01:56:00;26.88;;;12.02;;
21729;SDS011;11027;51.030;13.812;2022-07-29T01:58:28;24.75;;;11.77;;
21729;SDS011;11027;51.030;13.812;2022-07-29T02:00:56;22.90;;;12.55;;
21729;SDS011;11027;51.030;13.812;2022-07-29T02:03:23;22.88;;;12.27;;
21729;SDS011;11027;51.030;13.812;2022-07-29T02:05:51;27.27;;;11.85;;
21729;SDS011;11027;51.030;13.812;2022-07-29T02:08:17;19.67;;;11.77;;
21729;SDS011;11027;51.030;13.812;2022-07-29T02:10:45;22.17;;;11.85;;
21729;SDS011;11027;51.030;13.812;2022-07-29T02:13:12;19.48;;;11.57;;
21729;SDS011;11027;51.030;13.812;2022-07-29T02:15:41;23.95;;;11.50;;
21729;SDS011;11027;51.030;13.812;2022-07-29T02:18:08;24.20;;;12.52;;
21729;SDS011;11027;51.030;13.812;2022-07-29T02:20:36;20.73;;;11.73;;
21729;SDS011;11027;51.030;13.812;2022-07-29T02:23:03;20.70;;;11.80;;
21729;SDS011;11027;51.030;13.812;2022-07-29T02:25:29;21.42;;;11.43;;
21729;SDS011;11027;51.030;13.812;2022-07-29T02:27:55;21.83;;;12.20;;
21729;SDS011;11027;51.030;13.812;2022-07-29T02:30:23;21.50;;;12.00;;
21729;SDS011;11027;51.030;13.812;2022-07-29T02:32:50;23.63;;;12.02;;
21729;SDS011;11027;51.030;13.812;2022-07-29T02:35:16;28.05;;;12.75;;
21729;SDS011;11027;51.030;13.812;2022-07-29T02:37:44;22.52;;;12.23;;
21729;SDS011;11027;51.030;13.812;2022-07-29T02:40:32;22.88;;;12.15;;
21729;SDS011;11027;51.030;13.812;2022-07-29T02:42:59;26.17;;;12.98;;
21729;SDS011;11027;51.030;13.812;2022-07-29T02:45:25;25.63;;;13.35;;
21729;SDS011;11027;51.030;13.812;2022-07-29T02:47:51;31.38;;;15.20;;
21729;SDS011;11027;51.030;13.812;2022-07-29T02:53:05;28.30;;;14.75;;
21729;SDS011;11027;51.030;13.812;2022-07-29T02:55:43;26.05;;;14.10;;
21729;SDS011;11027;51.030;13.812;2022-07-29T03:00:40;23.48;;;13.38;;
21729;SDS011;11027;51.030;13.812;2022-07-29T03:03:08;26.83;;;14.25;;
21729;SDS011;11027;51.030;13.812;2022-07-29T03:05:38;29.67;;;15.40;;
21729;SDS011;11027;51.030;13.812;2022-07-29T03:08:04;26.10;;;15.32;;
21729;SDS011;11027;51.030;13.812;2022-07-29T03:10:31;28.15;;;15.02;;
21729;SDS011;11027;51.030;13.812;2022-07-29T03:12:58;27.15;;;15.73;;
21729;SDS011;11027;51.030;13.812;2022-07-29T03:15:24;31.00;;;16.40;;
21729;SDS011;11027;51.030;13.812;2022-07-29T03:17:50;34.90;;;17.23;;
21729;SDS011;11027;51.030;13.812;2022-07-29T03:20:17;30.35;;;18.48;;
21729;SDS011;11027;51.030;13.812;2022-07-29T03:22:43;34.38;;;18.88;;
21729;SDS011;11027;51.030;13.812;2022-07-29T03:25:12;36.22;;;20.45;;
21729;SDS011;11027;51.030;13.812;2022-07-29T03:27:38;36.88;;;19.23;;
21729;SDS011;11027;51.030;13.812;2022-07-29T03:30:04;30.30;;;18.75;;
21729;SDS011;11027;51.030;13.812;2022-07-29T03:32:30;32.50;;;18.55;;
21729;SDS011;11027;51.030;13.812;2022-07-29T03:34:56;29.95;;;17.85;;
21729;SDS011;11027;51.030;13.812;2022-07-29T03:37:21;29.02;;;17.95;;
21729;SDS011;11027;51.030;13.812;2022-07-29T03:39:46;27.80;;;17.23;;
21729;SDS011;11027;51.030;13.812;2022-07-29T03:42:13;30.27;;;17.27;;
21729;SDS011;11027;51.030;13.812;2022-07-29T03:44:41;31.40;;;17.52;;
21729;SDS011;11027;51.030;13.812;2022-07-29T03:47:08;27.20;;;17.77;;
21729;SDS011;11027;51.030;13.812;2022-07-29T03:49:36;30.70;;;17.38;;
21729;SDS011;11027;51.030;13.812;2022-07-29T03:52:02;31.48;;;17.70;;
21729;SDS011;11027;51.030;13.812;2022-07-29T03:54:28;30.35;;;18.65;;
21729;SDS011;11027;51.030;13.812;2022-07-29T03:56:54;30.85;;;18.83;;
21729;SDS011;11027;51.030;13.812;2022-07-29T03:59:23;33.30;;;18.05;;
21729;SDS011;11027;51.030;13.812;2022-07-29T04:01:49;30.08;;;17.83;;
21729;SDS011;11027;51.030;13.812;2022-07-29T04:04:15;32.35;;;17.92;;
21729;SDS011;11027;51.030;13.812;2022-07-29T04:06:41;34.80;;;18.30;;
21729;SDS011;11027;51.030;13.812;2022-07-29T04:09:08;32.00;;;17.45;;
21729;SDS011;11027;51.030;13.812;2022-07-29T04:11:34;30.58;;;17.58;;
21729;SDS011;11027;51.030;13.812;2022-07-29T04:14:00;33.13;;;17.63;;
21729;SDS011;11027;51.030;13.812;2022-07-29T04:16:25;29.98;;;16.30;;
21729;SDS011;11027;51.030;13.812;2022-07-29T04:18:51;32.47;;;16.63;;
21729;SDS011;11027;51.030;13.812;2022-07-29T04:21:16;29.40;;;16.00;;
21729;SDS011;11027;51.030;13.812;2022-07-29T04:23:41;30.35;;;16.35;;
21729;SDS011;11027;51.030;13.812;2022-07-29T04:26:09;33.15;;;17.40;;
21729;SDS011;11027;51.030;13.812;2022-07-29T04:28:35;31.17;;;16.25;;
21729;SDS011;11027;51.030;13.812;2022-07-29T04:31:00;28.40;;;16.35;;
21729;SDS011;11027;51.030;13.812;2022-07-29T04:33:26;30.63;;;16.33;;
21729;SDS011;11027;51.030;13.812;2022-07-29T04:35:52;29.15;;;16.08;;
21729;SDS011;11027;51.030;13.812;2022-07-29T04:38:17;30.55;;;16.63;;
21729;SDS011;11027;51.030;13.812;2022-07-29T04:40:42;28.02;;;16.33;;
21729;SDS011;11027;51.030;13.812;2022-07-29T04:43:07;26.13;;;15.95;;
21729;SDS011;11027;51.030;13.812;2022-07-29T04:45:33;26.08;;;15.25;;
21729;SDS011;11027;51.030;13.812;2022-07-29T04:47:58;27.25;;;15.68;;
21729;SDS011;11027;51.030;13.812;2022-07-29T04:50:26;33.00;;;16.58;;
21729;SDS011;11027;51.030;13.812;2022-07-29T04:52:51;26.42;;;16.15;;
21729;SDS011;11027;51.030;13.812;2022-07-29T04:55:16;28.50;;;15.55;;
21729;SDS011;11027;51.030;13.812;2022-07-29T04:57:42;29.20;;;15.48;;
21729;SDS011;11027;51.030;13.812;2022-07-29T05:00:07;26.58;;;14.77;;
21729;SDS011;11027;51.030;13.812;2022-07-29T05:02:33;29.70;;;15.23;;
21729;SDS011;11027;51.030;13.812;2022-07-29T05:04:58;28.02;;;16.05;;
21729;SDS011;11027;51.030;13.812;2022-07-29T05:07:24;27.85;;;17.27;;
21729;SDS011;11027;51.030;13.812;2022-07-29T05:09:49;34.20;;;18.23;;
21729;SDS011;11027;51.030;13.812;2022-07-29T05:12:14;32.70;;;19.98;;
21729;SDS011;11027;51.030;13.812;2022-07-29T05:14:39;40.72;;;20.63;;
21729;SDS011;11027;51.030;13.812;2022-07-29T05:17:04;42.88;;;20.40;;
21729;SDS011;11027;51.030;13.812;2022-07-29T05:19:30;32.83;;;20.63;;
21729;SDS011;11027;51.030;13.812;2022-07-29T05:21:55;39.92;;;20.85;;
21729;SDS011;11027;51.030;13.812;2022-07-29T05:24:20;35.80;;;21.38;;
21729;SDS011;11027;51.030;13.812;2022-07-29T05:26:46;39.13;;;22.15;;
21729;SDS011;11027;51.030;13.812;2022-07-29T05:29:11;36.45;;;22.00;;
21729;SDS011;11027;51.030;13.812;2022-07-29T05:31:36;37.42;;;21.77;;
21729;SDS011;11027;51.030;13.812;2022-07-29T05:34:01;42.55;;;23.20;;
21729;SDS011;11027;51.030;13.812;2022-07-29T05:36:27;48.17;;;21.00;;
21729;SDS011;11027;51.030;13.812;2022-07-29T05:38:52;39.28;;;21.25;;
21729;SDS011;11027;51.030;13.812;2022-07-29T05:41:18;36.38;;;20.60;;
21729;SDS011;11027;51.030;13.812;2022-07-29T05:43:44;35.70;;;20.55;;
21729;SDS011;11027;51.030;13.812;2022-07-29T05:46:09;35.13;;;19.77;;
21729;SDS011;11027;51.030;13.812;2022-07-29T05:48:34;32.47;;;18.60;;
21729;SDS011;11027;51.030;13.812;2022-07-29T05:50:59;30.42;;;18.35;;
21729;SDS011;11027;51.030;13.812;2022-07-29T05:53:25;30.42;;;18.42;;
21729;SDS011;11027;51.030;13.812;2022-07-29T05:55:50;39.03;;;19.65;;
21729;SDS011;11027;51.030;13.812;2022-07-29T05:58:16;37.08;;;19.98;;
21729;SDS011;11027;51.030;13.812;2022-07-29T06:00:41;38.42;;;21.23;;
21729;SDS011;11027;51.030;13.812;2022-07-29T06:03:07;35.72;;;19.90;;
21729;SDS011;11027;51.030;13.812;2022-07-29T06:05:32;37.25;;;19.98;;
21729;SDS011;11027;51.030;13.812;2022-07-29T06:07:57;34.50;;;18.60;;
21729;SDS011;11027;51.030;13.812;2022-07-29T06:10:22;32.72;;;17.50;;
21729;SDS011;11027;51.030;13.812;2022-07-29T06:12:48;29.55;;;15.73;;
21729;SDS011;11027;51.030;13.812;2022-07-29T06:15:13;27.92;;;14.23;;
21729;SDS011;11027;51.030;13.812;2022-07-29T06:17:38;24.63;;;13.25;;
21729;SDS011;11027;51.030;13.812;2022-07-29T06:20:04;25.08;;;14.05;;
21729;SDS011;11027;51.030;13.812;2022-07-29T06:22:29;32.03;;;17.65;;
21729;SDS011;11027;51.030;13.812;2022-07-29T06:24:55;30.55;;;15.48;;
21729;SDS011;11027;51.030;13.812;2022-07-29T06:27:20;27.23;;;15.50;;
21729;SDS011;11027;51.030;13.812;2022-07-29T06:29:45;32.47;;;15.05;;
21729;SDS011;11027;51.030;13.812;2022-07-29T06:32:10;31.25;;;17.70;;
21729;SDS011;11027;51.030;13.812;2022-07-29T06:34:36;26.55;;;16.02;;
21729;SDS011;11027;51.030;13.812;2022-07-29T06:37:10;33.78;;;16.13;;
21729;SDS011;11027;51.030;13.812;2022-07-29T06:39:35;29.50;;;15.45;;
21729;SDS011;11027;51.030;13.812;2022-07-29T06:42:01;29.92;;;15.05;;
21729;SDS011;11027;51.030;13.812;2022-07-29T06:44:27;30.60;;;15.02;;
21729;SDS011;11027;51.030;13.812;2022-07-29T06:46:52;29.98;;;14.55;;
21729;SDS011;11027;51.030;13.812;2022-07-29T06:49:19;32.53;;;15.52;;
21729;SDS011;11027;51.030;13.812;2022-07-29T06:51:45;27.27;;;16.58;;
21729;SDS011;11027;51.030;13.812;2022-07-29T06:54:10;40.67;;;20.92;;
21729;SDS011;11027;51.030;13.812;2022-07-29T06:56:35;33.90;;;22.55;;
21729;SDS011;11027;51.030;13.812;2022-07-29T06:59:02;38.05;;;22.92;;
21729;SDS011;11027;51.030;13.812;2022-07-29T07:01:28;42.38;;;22.95;;
21729;SDS011;11027;51.030;13.812;2022-07-29T07:03:53;41.90;;;23.98;;
21729;SDS011;11027;51.030;13.812;2022-07-29T07:06:19;39.72;;;23.33;;
21729;SDS011;11027;51.030;13.812;2022-07-29T07:08:44;42.28;;;22.77;;
21729;SDS011;11027;51.030;13.812;2022-07-29T07:11:09;39.55;;;23.80;;
21729;SDS011;11027;51.030;13.812;2022-07-29T07:13:34;45.50;;;23.38;;
21729;SDS011;11027;51.030;13.812;2022-07-29T07:16:01;43.28;;;23.52;;
21729;SDS011;11027;51.030;13.812;2022-07-29T07:18:26;39.30;;;21.65;;
21729;SDS011;11027;51.030;13.812;2022-07-29T07:20:52;34.70;;;20.23;;
21729;SDS011;11027;51.030;13.812;2022-07-29T07:23:18;32.83;;;17.75;;
21729;SDS011;11027;51.030;13.812;2022-07-29T07:25:43;28.40;;;17.20;;
21729;SDS011;11027;51.030;13.812;2022-07-29T07:28:08;30.48;;;14.63;;
21729;SDS011;11027;51.030;13.812;2022-07-29T07:30:34;32.67;;;14.13;;
21729;SDS011;11027;51.030;13.812;2022-07-29T07:32:59;29.08;;;13.73;;
21729;SDS011;11027;51.030;13.812;2022-07-29T07:35:25;20.05;;;12.77;;
21729;SDS011;11027;51.030;13.812;2022-07-29T07:37:52;28.70;;;14.15;;
21729;SDS011;11027;51.030;13.812;2022-07-29T07:40:18;26.40;;;14.35;;
21729;SDS011;11027;51.030;13.812;2022-07-29T07:42:43;25.63;;;13.57;;
21729;SDS011;11027;51.030;13.812;2022-07-29T07:45:08;24.40;;;12.90;;
21729;SDS011;11027;51.030;13.812;2022-07-29T07:47:36;26.05;;;12.27;;
21729;SDS011;11027;51.030;13.812;2022-07-29T07:50:06;30.48;;;12.85;;
21729;SDS011;11027;51.030;13.812;2022-07-29T07:52:33;24.98;;;13.30;;
21729;SDS011;11027;51.030;13.812;2022-07-29T07:54:59;24.67;;;14.32;;
21729;SDS011;11027;51.030;13.812;2022-07-29T07:57:24;28.50;;;14.43;;
21729;SDS011;11027;51.030;13.812;2022-07-29T07:59:50;22.52;;;13.07;;
21729;SDS011;11027;51.030;13.812;2022-07-29T08:02:15;23.45;;;12.95;;
21729;SDS011;11027;51.030;13.812;2022-07-29T08:04:40;29.55;;;14.02;;
21729;SDS011;11027;51.030;13.812;2022-07-29T08:07:06;27.25;;;13.85;;
21729;SDS011;11027;51.030;13.812;2022-07-29T08:09:32;20.85;;;12.75;;
21729;SDS011;11027;51.030;13.812;2022-07-29T08:11:59;24.83;;;12.15;;
21729;SDS011;11027;51.030;13.812;2022-07-29T08:14:27;22.13;;;12.18;;
21729;SDS011;11027;51.030;13.812;2022-07-29T08:16:52;27.80;;;12.45;;
21729;SDS011;11027;51.030;13.812;2022-07-29T08:19:17;25.45;;;11.90;;
21729;SDS011;11027;51.030;13.812;2022-07-29T08:21:43;28.65;;;11.57;;
21729;SDS011;11027;51.030;13.812;2022-07-29T08:24:08;25.98;;;11.98;;
21729;SDS011;11027;51.030;13.812;2022-07-29T08:26:52;23.70;;;10.88;;
21729;SDS011;11027;51.030;13.812;2022-07-29T08:29:17;21.10;;;10.38;;
21729;SDS011;11027;51.030;13.812;2022-07-29T08:31:43;25.00;;;10.73;;
21729;SDS011;11027;51.030;13.812;2022-07-29T08:34:08;21.40;;;10.25;;
21729;SDS011;11027;51.030;13.812;2022-07-29T08:36:33;18.13;;;9.90;;
21729;SDS011;11027;51.030;13.812;2022-07-29T08:38:59;20.70;;;9.95;;
21729;SDS011;11027;51.030;13.812;2022-07-29T08:41:25;22.48;;;10.48;;
21729;SDS011;11027;51.030;13.812;2022-07-29T08:43:51;19.00;;;9.70;;
21729;SDS011;11027;51.030;13.812;2022-07-29T08:46:17;21.85;;;9.75;;
21729;SDS011;11027;51.030;13.812;2022-07-29T08:48:43;23.38;;;10.18;;
21729;SDS011;11027;51.030;13.812;2022-07-29T08:51:12;17.30;;;8.80;;
21729;SDS011;11027;51.030;13.812;2022-07-29T08:53:40;20.75;;;10.48;;
21729;SDS011;11027;51.030;13.812;2022-07-29T08:56:06;21.50;;;9.68;;
21729;SDS011;11027;51.030;13.812;2022-07-29T08:58:32;20.15;;;10.13;;
21729;SDS011;11027;51.030;13.812;2022-07-29T09:00:58;21.25;;;9.25;;
21729;SDS011;11027;51.030;13.812;2022-07-29T09:03:30;17.20;;;8.65;;
21729;SDS011;11027;51.030;13.812;2022-07-29T09:05:56;15.68;;;9.10;;
21729;SDS011;11027;51.030;13.812;2022-07-29T09:08:23;21.45;;;9.93;;
21729;SDS011;11027;51.030;13.812;2022-07-29T09:10:48;21.85;;;9.20;;
21729;SDS011;11027;51.030;13.812;2022-07-29T09:13:14;19.17;;;9.20;;
21729;SDS011;11027;51.030;13.812;2022-07-29T09:15:39;15.00;;;8.52;;
21729;SDS011;11027;51.030;13.812;2022-07-29T09:18:05;14.18;;;9.00;;
21729;SDS011;11027;51.030;13.812;2022-07-29T09:20:30;17.13;;;9.80;;
21729;SDS011;11027;51.030;13.812;2022-07-29T09:23:14;18.30;;;9.73;;
21729;SDS011;11027;51.030;13.812;2022-07-29T09:25:40;19.40;;;9.30;;
21729;SDS011;11027;51.030;13.812;2022-07-29T09:33:23;21.80;;;9.52;;
21729;SDS011;11027;51.030;13.812;2022-07-29T09:35:59;18.73;;;9.80;;
21729;SDS011;11027;51.030;13.812;2022-07-29T09:40:56;17.83;;;9.73;;
21729;SDS011;11027;51.030;13.812;2022-07-29T09:43:22;17.15;;;9.65;;
21729;SDS011;11027;51.030;13.812;2022-07-29T09:45:47;17.42;;;9.05;;
21729;SDS011;11027;51.030;13.812;2022-07-29T09:48:17;20.50;;;9.95;;
21729;SDS011;11027;51.030;13.812;2022-07-29T09:50:44;17.98;;;9.85;;
21729;SDS011;11027;51.030;13.812;2022-07-29T09:53:11;17.15;;;9.48;;
21729;SDS011;11027;51.030;13.812;2022-07-29T09:55:53;17.55;;;9.15;;
21729;SDS011;11027;51.030;13.812;2022-07-29T09:58:20;20.42;;;9.57;;
21729;SDS011;11027;51.030;13.812;2022-07-29T10:00:47;18.63;;;9.77;;
21729;SDS011;11027;51.030;13.812;2022-07-29T10:03:13;20.05;;;9.88;;
21729;SDS011;11027;51.030;13.812;2022-07-29T10:05:40;15.20;;;8.98;;
21729;SDS011;11027;51.030;13.812;2022-07-29T10:08:07;13.43;;;7.90;;
21729;SDS011;11027;51.030;13.812;2022-07-29T10:10:34;15.52;;;8.98;;
21729;SDS011;11027;51.030;13.812;2022-07-29T10:13:06;16.85;;;7.25;;
21729;SDS011;11027;51.030;13.812;2022-07-29T10:15:37;16.20;;;7.28;;
21729;SDS011;11027;51.030;13.812;2022-07-29T10:18:06;16.65;;;6.40;;
21729;SDS011;11027;51.030;13.812;2022-07-29T10:20:33;16.73;;;8.00;;
21729;SDS011;11027;51.030;13.812;2022-07-29T10:22:58;13.00;;;6.80;;
21729;SDS011;11027;51.030;13.812;2022-07-29T10:25:24;11.68;;;5.85;;
21729;SDS011;11027;51.030;13.812;2022-07-29T10:27:50;7.95;;;4.82;;
21729;SDS011;11027;51.030;13.812;2022-07-29T10:30:16;12.18;;;3.83;;
21729;SDS011;11027;51.030;13.812;2022-07-29T10:35:54;7.78;;;2.75;;
21729;SDS011;11027;51.030;13.812;2022-07-29T10:43:51;5.88;;;2.20;;
21729;SDS011;11027;51.030;13.812;2022-07-29T10:46:18;3.47;;;1.67;;
21729;SDS011;11027;51.030;13.812;2022-07-29T10:57:16;5.43;;;1.90;;
21729;SDS011;11027;51.030;13.812;2022-07-29T10:59:44;2.28;;;1.50;;
21729;SDS011;11027;51.030;13.812;2022-07-29T11:07:31;8.07;;;1.80;;
21729;SDS011;11027;51.030;13.812;2022-07-29T11:15:01;3.73;;;1.70;;
21729;SDS011;11027;51.030;13.812;2022-07-29T11:17:28;3.05;;;1.60;;
21729;SDS011;11027;51.030;13.812;2022-07-29T11:22:58;2.65;;;1.40;;
21729;SDS011;11027;51.030;13.812;2022-07-29T11:25:23;2.92;;;1.60;;
21729;SDS011;11027;51.030;13.812;2022-07-29T11:27:50;3.17;;;1.50;;
21729;SDS011;11027;51.030;13.812;2022-07-29T11:30:17;2.60;;;1.50;;
21729;SDS011;11027;51.030;13.812;2022-07-29T11:32:43;3.90;;;1.67;;
21729;SDS011;11027;51.030;13.812;2022-07-29T11:35:13;2.42;;;1.60;;
21729;SDS011;11027;51.030;13.812;2022-07-29T11:37:42;7.18;;;1.73;;
21729;SDS011;11027;51.030;13.812;2022-07-29T11:40:10;3.53;;;1.70;;
21729;SDS011;11027;51.030;13.812;2022-07-29T11:42:37;5.68;;;1.77;;
21729;SDS011;11027;51.030;13.812;2022-07-29T11:45:05;2.17;;;1.80;;
21729;SDS011;11027;51.030;13.812;2022-07-29T11:47:31;4.45;;;1.85;;
21729;SDS011;11027;51.030;13.812;2022-07-29T11:50:04;6.38;;;1.73;;
21729;SDS011;11027;51.030;13.812;2022-07-29T11:52:38;3.55;;;1.80;;
21729;SDS011;11027;51.030;13.812;2022-07-29T11:55:10;5.18;;;1.90;;
21729;SDS011;11027;51.030;13.812;2022-07-29T11:57:46;2.97;;;2.00;;
21729;SDS011;11027;51.030;13.812;2022-07-29T12:00:20;5.70;;;1.95;;
21729;SDS011;11027;51.030;13.812;2022-07-29T12:03:02;5.45;;;2.08;;
21729;SDS011;11027;51.030;13.812;2022-07-29T12:05:33;2.72;;;1.63;;
21729;SDS011;11027;51.030;13.812;2022-07-29T12:08:07;4.95;;;1.90;;
21729;SDS011;11027;51.030;13.812;2022-07-29T12:10:34;3.63;;;1.70;;
21729;SDS011;11027;51.030;13.812;2022-07-29T12:12:59;7.07;;;1.90;;
21729;SDS011;11027;51.030;13.812;2022-07-29T12:15:24;5.32;;;1.92;;
21729;SDS011;11027;51.030;13.812;2022-07-29T12:17:51;5.45;;;2.20;;
21729;SDS011;11027;51.030;13.812;2022-07-29T12:20:23;4.63;;;2.17;;
21729;SDS011;11027;51.030;13.812;2022-07-29T12:22:55;4.85;;;2.47;;
21729;SDS011;11027;51.030;13.812;2022-07-29T12:25:21;3.80;;;2.38;;
21729;SDS011;11027;51.030;13.812;2022-07-29T12:27:59;3.83;;;2.03;;
21729;SDS011;11027;51.030;13.812;2022-07-29T12:30:34;4.25;;;1.63;;
21729;SDS011;11027;51.030;13.812;2022-07-29T12:33:10;1.63;;;1.50;;
21729;SDS011;11027;51.030;13.812;2022-07-29T12:35:36;4.72;;;1.80;;
21729;SDS011;11027;51.030;13.812;2022-07-29T12:38:01;2.30;;;1.52;;
21729;SDS011;11027;51.030;13.812;2022-07-29T12:40:27;3.88;;;1.90;;
21729;SDS011;11027;51.030;13.812;2022-07-29T12:43:05;2.95;;;1.70;;
21729;SDS011;11027;51.030;13.812;2022-07-29T12:45:32;5.25;;;1.73;;
21729;SDS011;11027;51.030;13.812;2022-07-29T12:47:58;3.83;;;1.80;;
21729;SDS011;11027;51.030;13.812;2022-07-29T12:50:23;3.00;;;1.75;;
21729;SDS011;11027;51.030;13.812;2022-07-29T12:52:48;3.67;;;1.67;;
21729;SDS011;11027;51.030;13.812;2022-07-29T12:55:14;2.33;;;1.70;;
21729;SDS011;11027;51.030;13.812;2022-07-29T12:57:46;3.97;;;1.90;;
21729;SDS011;11027;51.030;13.812;2022-07-29T13:00:13;7.03;;;1.77;;
21729;SDS011;11027;51.030;13.812;2022-07-29T13:02:40;6.18;;;1.63;;
21729;SDS011;11027;51.030;13.812;2022-07-29T13:05:07;2.42;;;1.50;;
21729;SDS011;11027;51.030;13.812;2022-07-29T13:07:34;3.15;;;1.60;;
21729;SDS011;11027;51.030;13.812;2022-07-29T13:12:37;3.65;;;2.08;;
21729;SDS011;11027;51.030;13.812;2022-07-29T13:15:15;3.22;;;1.67;;
21729;SDS011;11027;51.030;13.812;2022-07-29T13:17:41;3.50;;;1.60;;
21729;SDS011;11027;51.030;13.812;2022-07-29T13:20:09;6.10;;;1.50;;
21729;SDS011;11027;51.030;13.812;2022-07-29T13:22:40;2.50;;;1.40;;
21729;SDS011;11027;51.030;13.812;2022-07-29T13:25:09;4.03;;;1.27;;
21729;SDS011;11027;51.030;13.812;2022-07-29T13:27:36;4.72;;;1.60;;
21729;SDS011;11027;51.030;13.812;2022-07-29T13:30:04;5.25;;;1.60;;
21729;SDS011;11027;51.030;13.812;2022-07-29T13:32:31;7.68;;;1.60;;
21729;SDS011;11027;51.030;13.812;2022-07-29T13:34:59;3.20;;;1.70;;
21729;SDS011;11027;51.030;13.812;2022-07-29T13:37:27;2.47;;;2.28;;
21729;SDS011;11027;51.030;13.812;2022-07-29T13:39:54;3.25;;;1.50;;
21729;SDS011;11027;51.030;13.812;2022-07-29T13:42:20;4.43;;;1.90;;
21729;SDS011;11027;51.030;13.812;2022-07-29T13:44:46;5.40;;;1.60;;
21729;SDS011;11027;51.030;13.812;2022-07-29T13:47:13;9.10;;;1.70;;
21729;SDS011;11027;51.030;13.812;2022-07-29T13:49:39;6.30;;;1.98;;
21729;SDS011;11027;51.030;13.812;2022-07-29T13:52:04;6.03;;;1.75;;
21729;SDS011;11027;51.030;13.812;2022-07-29T13:54:32;7.88;;;1.95;;
21729;SDS011;11027;51.030;13.812;2022-07-29T13:56:57;4.63;;;1.83;;
21729;SDS011;11027;51.030;13.812;2022-07-29T13:59:22;5.00;;;1.80;;
21729;SDS011;11027;51.030;13.812;2022-07-29T14:01:48;3.50;;;2.40;;
21729;SDS011;11027;51.030;13.812;2022-07-29T14:04:13;6.30;;;2.10;;
21729;SDS011;11027;51.030;13.812;2022-07-29T14:06:38;8.65;;;4.50;;
21729;SDS011;11027;51.030;13.812;2022-07-29T14:09:03;4.57;;;2.20;;
21729;SDS011;11027;51.030;13.812;2022-07-29T14:11:33;4.07;;;2.10;;
21729;SDS011;11027;51.030;13.812;2022-07-29T14:13:58;4.97;;;2.17;;
21729;SDS011;11027;51.030;13.812;2022-07-29T14:16:24;6.30;;;1.80;;
21729;SDS011;11027;51.030;13.812;2022-07-29T14:18:49;5.67;;;1.70;;
21729;SDS011;11027;51.030;13.812;2022-07-29T14:21:14;4.83;;;2.07;;
21729;SDS011;11027;51.030;13.812;2022-07-29T14:23:39;3.05;;;1.58;;
21729;SDS011;11027;51.030;13.812;2022-07-29T14:26:05;6.60;;;1.70;;
21729;SDS011;11027;51.030;13.812;2022-07-29T14:28:31;3.47;;;1.60;;
21729;SDS011;11027;51.030;13.812;2022-07-29T14:30:56;7.40;;;1.50;;
21729;SDS011;11027;51.030;13.812;2022-07-29T14:33:22;3.30;;;1.47;;
21729;SDS011;11027;51.030;13.812;2022-07-29T14:35:47;3.17;;;1.60;;
21729;SDS011;11027;51.030;13.812;2022-07-29T14:38:12;5.10;;;1.80;;
21729;SDS011;11027;51.030;13.812;2022-07-29T14:40:37;3.33;;;1.40;;
21729;SDS011;11027;51.030;13.812;2022-07-29T14:43:03;5.23;;;1.70;;
21729;SDS011;11027;51.030;13.812;2022-07-29T14:45:28;6.78;;;1.75;;
21729;SDS011;11027;51.030;13.812;2022-07-29T14:47:53;9.07;;;1.80;;
21729;SDS011;11027;51.030;13.812;2022-07-29T14:50:19;3.35;;;1.63;;
21729;SDS011;11027;51.030;13.812;2022-07-29T14:52:44;10.10;;;1.98;;
21729;SDS011;11027;51.030;13.812;2022-07-29T14:55:10;4.80;;;1.97;;
21729;SDS011;11027;51.030;13.812;2022-07-29T14:57:35;2.65;;;1.65;;
21729;SDS011;11027;51.030;13.812;2022-07-29T15:00:01;5.03;;;2.10;;
21729;SDS011;11027;51.030;13.812;2022-07-29T15:02:27;3.33;;;1.88;;
21729;SDS011;11027;51.030;13.812;2022-07-29T15:04:53;4.80;;;2.13;;
21729;SDS011;11027;51.030;13.812;2022-07-29T15:07:18;4.87;;;2.20;;
21729;SDS011;11027;51.030;13.812;2022-07-29T15:09:43;2.90;;;1.80;;
21729;SDS011;11027;51.030;13.812;2022-07-29T15:12:10;4.60;;;2.15;;
21729;SDS011;11027;51.030;13.812;2022-07-29T15:14:35;4.35;;;2.13;;